Time;durP1;ratioP1;P1;durP2;ratioP2;P2;SDS_P1;SDS_P2;PMS_P1;PMS_P2;Temp;Humidity;BMP_temperature;BMP_pressure;BME280_temperature;BME280_humidity;BME280_pressure;Samples;Min_cycle;Max_cycle;Signal;HPM_P1;HPM_P2
2023/03/03 00:01:24;;;;;;;3.58;3.28;;;;;;;4.48;75.72;94956.41;5116646;28;20625;-71
2023/03/03 00:03:51;;;;;;;3.00;2.80;;;;;;;4.55;75.24;94957.56;5116019;28;20289;-71
2023/03/03 00:06:18;;;;;;;2.88;2.67;;;;;;;4.63;75.13;94950.50;5116843;28;20195;-71
2023/03/03 00:08:44;;;;;;;3.35;3.15;;;;;;;4.71;74.84;94955.19;5116559;28;20188;-71
2023/03/03 00:11:12;;;;;;;3.03;2.83;;;;;;;4.69;74.62;94954.72;5115757;28;20192;-71
2023/03/03 00:13:46;;;;;;;2.70;2.50;;;;;;;4.61;74.52;94944.53;5115940;28;20295;-71
2023/03/03 00:16:24;;;;;;;3.05;2.85;;;;;;;4.51;74.70;94958.53;5116483;28;20191;-71
2023/03/03 00:18:51;;;;;;;2.83;2.63;;;;;;;4.51;74.69;94955.78;5116690;28;20208;-71
2023/03/03 00:21:28;;;;;;;2.95;2.75;;;;;;;4.49;75.35;94950.63;5116686;28;20180;-71
2023/03/03 00:23:55;;;;;;;3.00;2.80;;;;;;;4.46;75.21;94940.34;5116352;28;20191;-71
2023/03/03 00:26:23;;;;;;;3.38;3.17;;;;;;;4.53;75.15;94943.41;5115647;28;20207;-71
2023/03/03 00:28:53;;;;;;;3.63;2.97;;;;;;;4.58;74.75;94948.75;5115281;28;20192;-71
2023/03/03 00:31:21;;;;;;;3.00;2.80;;;;;;;4.54;74.95;94952.44;5116322;28;20256;-71
2023/03/03 00:33:53;;;;;;;3.13;2.92;;;;;;;4.53;74.97;94943.41;5115601;28;20199;-71
2023/03/03 00:36:38;;;;;;;3.67;3.38;;;;;;;4.54;75.29;94944.25;5116241;28;20222;-70
2023/03/03 00:39:18;;;;;;;3.50;3.20;;;;;;;4.56;75.04;94941.97;5116261;28;20183;-70
2023/03/03 00:41:45;;;;;;;3.70;3.40;;;;;;;4.55;75.20;94943.91;5116039;28;20195;-70
2023/03/03 00:44:33;;;;;;;3.70;3.40;;;;;;;4.60;75.41;94932.03;5115937;28;20254;-70
2023/03/03 00:47:03;;;;;;;4.00;3.70;;;;;;;4.64;75.16;94933.00;5115227;28;20203;-70
2023/03/03 00:49:30;;;;;;;4.32;4.03;;;;;;;4.64;74.70;94922.06;5115425;28;20207;-70
2023/03/03 00:51:56;;;;;;;4.80;4.40;;;;;;;4.65;75.08;94920.13;5115037;28;20288;-70
2023/03/03 00:54:23;;;;;;;4.03;3.72;;;;;;;4.57;75.42;94917.09;5115734;28;20184;-70
2023/03/03 00:56:50;;;;;;;4.40;4.10;;;;;;;4.58;74.93;94917.91;5115286;28;20187;-70
2023/03/03 00:59:17;;;;;;;4.32;4.03;;;;;;;4.59;75.11;94912.09;5114590;28;20658;-70
2023/03/03 01:01:45;;;;;;;4.10;3.80;;;;;;;4.63;75.13;94904.06;5115313;28;20210;-70
2023/03/03 01:04:11;;;;;;;4.45;4.15;;;;;;;4.65;75.46;94895.53;5115858;28;20184;-70
2023/03/03 01:06:38;;;;;;;4.20;3.83;;;;;;;4.64;74.87;94900.22;5115508;28;20214;-70
2023/03/03 01:09:05;;;;;;;3.72;3.45;;;;;;;4.67;75.14;94899.56;5115927;28;20188;-71
2023/03/03 01:11:31;;;;;;;4.15;3.85;;;;;;;4.75;75.02;94900.69;5114757;28;20198;-71
2023/03/03 01:13:58;;;;;;;4.95;4.65;;;;;;;4.74;74.59;94890.91;5115389;28;20615;-70
2023/03/03 01:16:25;;;;;;;3.83;3.53;;;;;;;4.69;74.62;94896.53;5115689;28;20192;-71
2023/03/03 01:18:53;;;;;;;4.22;3.92;;;;;;;4.64;74.95;94893.94;5115763;28;20191;-71
2023/03/03 01:21:20;;;;;;;3.80;3.58;;;;;;;4.68;74.94;94886.72;5115940;28;20603;-71
2023/03/03 01:23:46;;;;;;;4.20;3.90;;;;;;;4.70;74.93;94888.00;5115618;28;20194;-71
2023/03/03 01:26:13;;;;;;;4.05;3.75;;;;;;;4.72;74.83;94887.69;5114578;28;20599;-71
2023/03/03 01:28:40;;;;;;;4.03;3.72;;;;;;;4.72;74.91;94893.13;5115772;28;20198;-71
2023/03/03 01:31:07;;;;;;;4.38;4.07;;;;;;;4.74;74.90;94899.91;5114211;28;20631;-71
2023/03/03 01:33:35;;;;;;;4.30;4.00;;;;;;;4.74;75.10;94897.16;5114549;28;20199;-71
2023/03/03 01:36:04;;;;;;;4.40;4.05;;;;;;;4.72;74.88;94890.41;5114606;28;20634;-71
2023/03/03 01:38:31;;;;;;;4.28;3.97;;;;;;;4.76;74.64;94889.47;5114481;28;20207;-71
2023/03/03 01:40:59;;;;;;;4.88;4.50;;;;;;;4.83;74.68;94891.72;5115858;28;20191;-71
2023/03/03 01:43:27;;;;;;;4.65;4.30;;;;;;;4.79;74.33;94886.09;5118728;28;20196;-71
2023/03/03 01:46:34;;;;;;;3.92;3.63;;;;;;;4.73;74.51;94883.84;5119623;28;20196;-70
2023/03/03 01:49:03;;;;;;;4.50;4.20;;;;;;;4.71;74.96;94886.06;5112255;28;20199;-70
2023/03/03 01:51:34;;;;;;;4.80;4.50;;;;;;;4.74;74.88;94883.50;5124542;27;20227;-71
2023/03/03 01:54:02;;;;;;;4.50;4.20;;;;;;;4.75;74.73;94879.66;5122207;27;20198;-71
2023/03/03 01:56:29;;;;;;;4.50;4.10;;;;;;;4.71;74.60;94884.16;5139689;27;20201;-70
2023/03/03 01:58:59;;;;;;;4.65;4.25;;;;;;;4.72;74.93;94883.03;5139657;27;20527;-70
2023/03/03 02:01:28;;;;;;;4.30;4.00;;;;;;;4.79;75.27;94879.81;5139620;27;20183;-70
2023/03/03 02:03:54;;;;;;;4.68;4.32;;;;;;;4.81;74.64;94881.09;5139964;27;20195;-70
2023/03/03 02:06:25;;;;;;;4.70;4.30;;;;;;;4.83;74.58;94878.06;5121933;27;20187;-70
2023/03/03 02:08:58;;;;;;;4.20;3.90;;;;;;;4.85;74.93;94878.53;5139568;27;20663;-70
2023/03/03 02:11:26;;;;;;;4.30;4.00;;;;;;;4.83;74.55;94884.34;5121673;27;20236;-70
2023/03/03 02:13:53;;;;;;;4.60;4.30;;;;;;;4.80;74.84;94882.25;5121786;27;20195;-70
2023/03/03 02:16:19;;;;;;;4.20;3.90;;;;;;;4.79;74.51;94877.91;5121873;27;20199;-70
2023/03/03 02:18:46;;;;;;;4.22;3.92;;;;;;;4.77;75.11;94884.81;5121404;27;20251;-71
2023/03/03 02:21:15;;;;;;;4.65;4.35;;;;;;;4.77;74.66;94882.06;5122219;27;20195;-71
2023/03/03 02:23:51;;;;;;;4.50;4.20;;;;;;;4.78;74.73;94883.66;5139572;27;20198;-71
2023/03/03 02:26:22;;;;;;;4.60;4.20;;;;;;;4.73;74.73;94881.13;5139469;27;20183;-71
2023/03/03 02:28:50;;;;;;;4.53;4.13;;;;;;;4.78;75.08;94883.66;5139328;27;20199;-71
2023/03/03 02:31:20;;;;;;;4.30;4.00;;;;;;;4.74;75.29;94878.03;5120869;27;20302;-71
2023/03/03 02:33:49;;;;;;;3.95;3.65;;;;;;;4.75;75.04;94879.66;5121419;27;20199;-71
2023/03/03 02:36:18;;;;;;;3.45;3.25;;;;;;;4.73;74.82;94872.91;5121543;27;20210;-71
2023/03/03 02:38:48;;;;;;;3.85;3.55;;;;;;;4.75;74.69;94873.38;5121321;27;20195;-71
2023/03/03 02:41:21;;;;;;;3.97;3.67;;;;;;;4.64;75.17;94881.09;5121192;27;20207;-71
2023/03/03 02:43:56;;;;;;;3.95;3.63;;;;;;;4.70;74.93;94876.28;5121345;27;20264;-71
2023/03/03 02:46:23;;;;;;;4.07;3.78;;;;;;;4.74;74.57;94882.72;5138789;27;20582;-71
2023/03/03 02:48:50;;;;;;;3.72;3.42;;;;;;;4.71;74.96;94886.06;5121225;27;20233;-71
2023/03/03 02:51:17;;;;;;;3.63;3.42;;;;;;;4.72;74.90;94874.84;5138486;27;20226;-71
2023/03/03 02:53:43;;;;;;;3.75;3.45;;;;;;;4.68;75.31;94882.03;5120775;27;20195;-70
2023/03/03 02:56:10;;;;;;;3.90;3.60;;;;;;;4.70;74.95;94874.34;5120852;27;20202;-71
2023/03/03 02:58:38;;;;;;;3.70;3.50;;;;;;;4.74;74.91;94877.25;5120350;27;20210;-71
2023/03/03 03:01:05;;;;;;;3.50;3.30;;;;;;;4.72;75.20;94869.38;5120690;27;20199;-71
2023/03/03 03:03:32;;;;;;;4.03;3.80;;;;;;;4.72;74.93;94874.84;5120740;27;20226;-70
2023/03/03 03:05:59;;;;;;;3.60;3.40;;;;;;;4.72;74.60;94868.56;5121058;27;20507;-70
2023/03/03 03:08:26;;;;;;;3.75;3.45;;;;;;;4.73;74.57;94870.19;5120851;27;20540;-71
2023/03/03 03:10:52;;;;;;;3.92;3.65;;;;;;;4.76;75.26;94866.81;5120437;27;20198;-71
2023/03/03 03:13:19;;;;;;;4.10;3.80;;;;;;;4.76;74.93;94866.81;5120425;27;20194;-71
2023/03/03 03:15:47;;;;;;;4.30;4.00;;;;;;;4.72;74.98;94869.38;5120241;27;20195;-71
2023/03/03 03:18:15;;;;;;;4.13;3.83;;;;;;;4.73;75.31;94862.00;5120677;27;20611;-71
2023/03/03 03:20:41;;;;;;;4.10;3.80;;;;;;;4.67;75.43;94857.78;5120781;27;20187;-70
2023/03/03 03:23:08;;;;;;;3.63;3.42;;;;;;;4.70;75.82;94862.63;5120181;27;20201;-70
2023/03/03 03:25:41;;;;;;;4.10;3.80;;;;;;;4.71;75.95;94865.03;5120423;27;20195;-70
2023/03/03 03:28:08;;;;;;;4.22;3.92;;;;;;;4.72;75.77;94866.66;5137912;27;20729;-70
2023/03/03 03:30:36;;;;;;;4.10;3.90;;;;;;;4.69;75.87;94863.75;5138360;27;20241;-70
2023/03/03 03:33:04;;;;;;;4.45;4.15;;;;;;;4.68;76.06;94859.41;5138213;27;20191;-70
2023/03/03 03:35:31;;;;;;;4.43;4.03;;;;;;;4.65;76.33;94860.84;5120020;27;20205;-71
2023/03/03 03:37:58;;;;;;;4.32;4.03;;;;;;;4.62;76.46;94861.50;5120604;27;20202;-71
2023/03/03 03:40:25;;;;;;;4.63;4.28;;;;;;;4.63;76.41;94860.38;5137720;27;20626;-71
2023/03/03 03:42:52;;;;;;;4.72;4.38;;;;;;;4.60;76.97;94855.53;5137782;27;20282;-71
2023/03/03 03:45:19;;;;;;;4.65;4.25;;;;;;;4.55;76.57;94861.16;5119900;27;20199;-71
2023/03/03 03:47:46;;;;;;;4.63;4.32;;;;;;;4.53;76.88;94855.22;5119753;27;20238;-71
2023/03/03 03:50:14;;;;;;;4.95;4.55;;;;;;;4.54;76.82;94851.38;5119496;27;20220;-71
2023/03/03 03:52:42;;;;;;;4.95;4.57;;;;;;;4.58;77.24;94855.06;5137836;27;20258;-70
2023/03/03 03:55:10;;;;;;;4.75;4.45;;;;;;;4.60;77.69;94852.81;5119751;27;20195;-71
2023/03/03 03:57:36;;;;;;;5.10;4.70;;;;;;;4.54;77.30;94848.63;5137709;27;20195;-71
2023/03/03 04:00:04;;;;;;;5.70;5.30;;;;;;;4.48;77.99;94849.91;5137284;27;20545;-71
2023/03/03 04:02:31;;;;;;;6.10;5.60;;;;;;;4.50;77.78;94845.75;5119430;27;20206;-71
2023/03/03 04:04:58;;;;;;;5.78;5.38;;;;;;;4.49;78.05;94846.03;5118605;27;20206;-71
2023/03/03 04:07:26;;;;;;;5.95;5.55;;;;;;;4.48;77.87;94844.44;5119335;27;20199;-70
2023/03/03 04:09:53;;;;;;;6.00;5.35;;;;;;;4.44;78.43;94840.75;5137561;27;20190;-70
2023/03/03 04:12:21;;;;;;;6.00;5.50;;;;;;;4.45;78.29;94836.88;5119316;27;20198;-70
2023/03/03 04:14:47;;;;;;;8.13;7.32;;;;;;;4.45;78.16;94840.41;5137445;27;20591;-71
2023/03/03 04:17:34;;;;;;;6.20;5.70;;;;;;;4.42;78.11;94841.06;5134511;27;20255;-71
2023/03/03 04:20:02;;;;;;;6.10;5.68;;;;;;;4.42;78.26;94846.50;5118904;27;20247;-71
2023/03/03 04:22:32;;;;;;;6.22;5.72;;;;;;;4.36;78.36;94839.63;5137641;27;20191;-71
2023/03/03 04:24:59;;;;;;;6.38;5.88;;;;;;;4.38;78.75;94848.28;5119349;27;20286;-70
2023/03/03 04:27:26;;;;;;;6.15;5.65;;;;;;;4.38;78.87;94844.75;5118775;27;20195;-70
2023/03/03 04:29:52;;;;;;;6.28;5.78;;;;;;;4.39;78.74;94844.41;5119176;27;20198;-70
2023/03/03 04:32:19;;;;;;;6.28;5.78;;;;;;;4.41;78.64;94842.19;5137112;27;20201;-70
2023/03/03 04:34:46;;;;;;;6.35;5.85;;;;;;;4.39;79.09;94838.94;5137125;27;20195;-70
2023/03/03 04:37:13;;;;;;;6.55;6.05;;;;;;;4.38;78.63;94842.81;5119241;27;20202;-70
2023/03/03 04:39:41;;;;;;;6.40;5.90;;;;;;;4.41;78.54;94839.44;5119211;27;20199;-70
2023/03/03 04:42:08;;;;;;;6.60;6.10;;;;;;;4.42;78.63;94838.31;5118479;27;20195;-70
2023/03/03 04:44:34;;;;;;;6.82;6.22;;;;;;;4.42;78.15;94842.97;5119007;27;20183;-70
2023/03/03 04:47:01;;;;;;;6.70;6.20;;;;;;;4.39;78.52;94843.63;5119098;27;20199;-70
2023/03/03 04:49:28;;;;;;;6.90;6.32;;;;;;;4.42;78.76;94843.78;5118634;27;20226;-70
2023/03/03 04:51:55;;;;;;;7.05;6.50;;;;;;;4.43;79.09;94839.13;5118487;27;20223;-70
2023/03/03 04:54:21;;;;;;;7.05;6.53;;;;;;;4.39;78.85;94838.16;5118576;27;20199;-70
2023/03/03 04:56:50;;;;;;;6.95;6.45;;;;;;;4.38;78.74;94840.09;5118764;27;20183;-70
2023/03/03 04:59:16;;;;;;;7.00;6.40;;;;;;;4.39;78.95;94844.41;5118481;27;20203;-70
2023/03/03 05:01:45;;;;;;;7.60;7.00;;;;;;;4.39;79.43;94851.81;5118671;27;20206;-70
2023/03/03 05:04:12;;;;;;;7.32;6.72;;;;;;;4.36;79.63;94845.09;5118180;27;20203;-70
2023/03/03 05:06:39;;;;;;;6.60;6.10;;;;;;;4.41;79.52;94844.13;5118371;27;20202;-70
2023/03/03 05:09:06;;;;;;;7.05;6.55;;;;;;;4.39;79.20;94849.88;5118677;27;20215;-70
2023/03/03 05:11:33;;;;;;;7.20;6.60;;;;;;;4.42;79.59;94849.25;5118256;27;20201;-70
2023/03/03 05:14:02;;;;;;;6.72;6.22;;;;;;;4.45;79.35;94843.16;5118564;27;20198;-70
2023/03/03 05:16:28;;;;;;;6.50;6.00;;;;;;;4.41;79.17;94844.91;5117853;28;20203;-70
2023/03/03 05:18:55;;;;;;;6.70;6.20;;;;;;;4.39;79.65;94857.28;5118333;27;20247;-70
2023/03/03 05:21:22;;;;;;;7.32;6.63;;;;;;;4.34;79.48;94850.03;5118379;27;20198;-73
2023/03/03 05:23:49;;;;;;;6.88;6.38;;;;;;;4.38;80.08;94851.00;5136251;27;20182;-72
2023/03/03 05:26:15;;;;;;;7.22;6.63;;;;;;;4.39;79.92;94857.28;5117761;28;20614;-72
2023/03/03 05:28:42;;;;;;;6.90;6.40;;;;;;;4.39;80.12;94860.81;5136481;28;20210;-72
2023/03/03 05:31:10;;;;;;;7.53;6.93;;;;;;;4.43;79.98;94853.59;5118121;28;20199;-72
2023/03/03 05:33:37;;;;;;;7.57;6.97;;;;;;;4.46;79.83;94855.66;5117971;28;20205;-73
2023/03/03 05:36:04;;;;;;;7.22;6.63;;;;;;;4.45;79.97;94851.34;5117959;28;20198;-72
2023/03/03 05:38:31;;;;;;;7.10;6.53;;;;;;;4.48;79.99;94852.63;5117770;28;20206;-72
2023/03/03 05:40:58;;;;;;;7.10;6.50;;;;;;;4.44;79.95;94857.94;5117850;28;20195;-72
2023/03/03 05:43:24;;;;;;;7.72;7.13;;;;;;;4.46;80.35;94858.41;5136034;28;20182;-72
2023/03/03 05:45:55;;;;;;;7.22;6.63;;;;;;;4.45;79.91;94859.53;5117846;28;20488;-73
2023/03/03 05:48:23;;;;;;;7.15;6.55;;;;;;;4.42;80.24;94865.63;5136296;28;20276;-73
2023/03/03 05:50:50;;;;;;;7.57;6.88;;;;;;;4.41;80.61;94858.56;5118176;28;20199;-72
2023/03/03 05:53:16;;;;;;;7.60;6.97;;;;;;;4.45;80.68;94865.00;5135777;28;20238;-75
2023/03/03 05:55:43;;;;;;;7.60;6.90;;;;;;;4.51;80.71;94863.72;5135561;28;20180;-72
2023/03/03 05:58:10;;;;;;;8.02;7.35;;;;;;;4.53;80.41;94866.13;5117474;28;20187;-72
2023/03/03 06:00:37;;;;;;;8.18;7.47;;;;;;;4.53;80.62;94864.19;5135640;28;20192;-72
2023/03/03 06:03:04;;;;;;;8.13;7.40;;;;;;;4.48;80.52;94861.63;5135468;28;20236;-72
2023/03/03 06:05:32;;;;;;;7.53;6.93;;;;;;;4.52;80.17;94865.31;5117900;28;20183;-72
2023/03/03 06:07:59;;;;;;;7.80;7.20;;;;;;;4.55;80.33;94858.44;5117560;28;20206;-73
2023/03/03 06:10:27;;;;;;;8.20;7.50;;;;;;;4.49;79.86;94859.69;5117578;28;20267;-73
2023/03/03 06:12:54;;;;;;;8.32;7.63;;;;;;;4.46;80.25;94868.53;5135481;28;20187;-72
2023/03/03 06:15:21;;;;;;;8.60;7.90;;;;;;;4.50;80.13;94866.75;5117725;28;20191;-72
2023/03/03 06:17:48;;;;;;;8.15;7.50;;;;;;;4.51;80.05;94869.19;5117520;28;20302;-72
2023/03/03 06:20:14;;;;;;;8.45;7.75;;;;;;;4.56;79.98;94873.69;5135331;28;20622;-72
2023/03/03 06:22:43;;;;;;;8.52;7.75;;;;;;;4.53;79.57;94872.41;5135167;28;20205;-72
2023/03/03 06:28:37;;;;;;;8.18;7.57;;;;;;;4.51;79.87;94874.66;5120917;27;20199;-73
2023/03/03 06:31:04;;;;;;;7.97;7.35;;;;;;;4.52;79.61;94878.19;5120724;27;20226;-72
2023/03/03 06:33:31;;;;;;;8.23;7.53;;;;;;;4.54;79.93;94878.69;5120669;27;20536;-72
2023/03/03 06:35:58;;;;;;;8.05;7.38;;;;;;;4.55;79.64;94880.28;5120623;27;20195;-72
2023/03/03 06:38:26;;;;;;;7.75;7.15;;;;;;;4.59;79.80;94886.72;5120733;27;20297;-72
2023/03/03 06:40:53;;;;;;;8.02;7.32;;;;;;;4.57;79.57;94872.56;5121080;27;20187;-72
2023/03/03 06:43:20;;;;;;;8.27;7.55;;;;;;;4.53;79.64;94871.59;5139092;27;20257;-72
2023/03/03 06:45:47;;;;;;;7.45;6.85;;;;;;;4.54;79.60;94881.41;5138610;27;20183;-72
2023/03/03 06:48:13;;;;;;;7.93;7.22;;;;;;;4.61;79.66;94884.44;5138920;27;20199;-73
2023/03/03 06:50:41;;;;;;;8.10;7.40;;;;;;;4.62;79.62;94886.09;5120913;27;20199;-72
2023/03/03 06:53:11;;;;;;;6.50;5.90;;;;;;;4.57;79.83;94888.94;5120391;27;20321;-72
2023/03/03 06:55:39;;;;;;;6.90;6.40;;;;;;;4.60;79.53;94885.59;5120738;27;20223;-73
2023/03/03 06:58:12;;;;;;;7.07;6.38;;;;;;;4.66;79.21;94883.50;5138723;27;20187;-73
2023/03/03 07:00:42;;;;;;;6.78;6.28;;;;;;;4.66;78.47;94883.50;5138588;27;20198;-72
2023/03/03 07:03:14;;;;;;;7.47;6.78;;;;;;;4.68;79.12;94889.44;5138595;27;20183;-72
2023/03/03 07:05:41;;;;;;;7.28;6.68;;;;;;;4.65;79.29;94895.53;5120157;27;20595;-72
2023/03/03 07:08:14;;;;;;;7.47;6.82;;;;;;;4.69;79.22;94891.88;5120514;27;20187;-73
2023/03/03 07:10:42;;;;;;;7.20;6.60;;;;;;;4.72;79.84;94891.25;5138043;27;20489;-73
2023/03/03 07:13:20;;;;;;;7.15;6.57;;;;;;;4.81;80.31;94893.97;5120336;27;20191;-73
2023/03/03 08:42:06;;;;;;;7.15;6.55;;;;;;;5.35;78.09;94860.81;5115895;27;20215;-71
2023/03/03 08:44:33;;;;;;;7.10;6.57;;;;;;;5.38;78.00;94862.91;5098167;28;20193;-71
2023/03/03 08:47:00;;;;;;;7.65;7.05;;;;;;;5.44;78.08;94862.38;5097878;28;20202;-71
2023/03/03 08:53:07;;;;;;;8.18;7.50;;;;;;;5.58;78.16;94862.19;5118304;27;20265;-72
2023/03/03 08:55:34;;;;;;;7.07;6.47;;;;;;;5.59;77.74;94857.53;5118340;27;20194;-72
2023/03/03 08:58:02;;;;;;;7.30;6.70;;;;;;;5.57;77.39;94857.88;5118013;27;20175;-71
2023/03/03 09:00:29;;;;;;;6.88;6.38;;;;;;;5.61;77.04;94861.56;5118465;27;20179;-71
2023/03/03 09:02:56;;;;;;;7.68;7.18;;;;;;;5.63;77.10;94861.22;5136312;27;20194;-71
2023/03/03 09:05:24;;;;;;;7.82;7.13;;;;;;;5.69;77.79;94865.38;5118246;27;20191;-71
2023/03/03 09:07:51;;;;;;;7.43;6.93;;;;;;;5.67;77.40;94862.19;5136167;27;20186;-71
2023/03/03 09:10:21;;;;;;;7.93;7.32;;;;;;;5.71;76.72;94863.94;5118255;27;20290;-71
2023/03/03 09:12:48;;;;;;;7.70;7.10;;;;;;;5.73;76.95;94861.66;5118235;28;20243;-71
2023/03/03 09:15:21;;;;;;;7.95;7.28;;;;;;;5.82;77.80;94866.31;5136326;27;20187;-71
2023/03/03 09:17:48;;;;;;;9.00;8.30;;;;;;;5.85;77.80;94861.00;5136215;27;20179;-71
2023/03/03 09:20:24;;;;;;;8.90;8.10;;;;;;;5.86;77.46;94864.53;5118010;28;20597;-71
2023/03/03 09:22:51;;;;;;;8.73;8.02;;;;;;;5.82;77.16;94858.13;5118143;28;20266;-71
2023/03/03 09:25:23;;;;;;;9.57;8.77;;;;;;;5.81;77.44;94854.59;5136136;27;20270;-71
2023/03/03 09:27:49;;;;;;;10.02;9.20;;;;;;;5.85;77.54;94863.75;5117913;28;20199;-71
2023/03/03 09:30:31;;;;;;;9.15;8.38;;;;;;;5.86;77.89;94854.38;5117162;28;20236;-71
2023/03/03 09:32:58;;;;;;;9.32;8.52;;;;;;;5.90;78.14;94860.81;5135736;28;20617;-71
2023/03/03 09:35:36;;;;;;;8.93;8.13;;;;;;;5.92;77.64;94857.72;5135675;28;20637;-71
2023/03/03 09:38:14;;;;;;;9.50;8.75;;;;;;;5.86;77.38;94862.59;5117828;28;20187;-71
2023/03/03 09:40:52;;;;;;;9.15;8.43;;;;;;;5.88;77.30;94865.00;5117324;28;20622;-71
2023/03/03 09:43:26;;;;;;;8.80;8.10;;;;;;;5.87;77.62;94866.94;5117877;28;20251;-71
2023/03/03 09:46:01;;;;;;;9.43;8.65;;;;;;;5.81;76.67;94868.25;5117454;28;20186;-71
2023/03/03 09:48:40;;;;;;;10.80;9.90;;;;;;;5.76;76.57;94861.00;5117442;28;20199;-71
2023/03/03 09:51:16;;;;;;;9.55;8.75;;;;;;;5.74;76.82;94857.03;5118047;28;20198;-71
2023/03/03 09:53:54;;;;;;;9.70;8.90;;;;;;;5.76;77.12;94860.22;5117869;28;20198;-71
2023/03/03 09:56:25;;;;;;;10.18;9.38;;;;;;;5.83;77.54;94866.00;5117359;28;20194;-71
2023/03/03 09:59:10;;;;;;;9.43;8.73;;;;;;;5.83;77.41;94863.25;5117842;28;20194;-71
2023/03/03 10:01:50;;;;;;;12.77;11.57;;;;;;;5.88;77.38;94854.03;5117979;27;20217;-71
2023/03/03 10:04:28;;;;;;;12.25;11.15;;;;;;;5.87;77.13;94849.72;5121522;27;20202;-71
2023/03/03 10:07:00;;;;;;;11.90;10.90;;;;;;;5.89;77.21;94856.47;5139609;27;20195;-71
2023/03/03 10:09:39;;;;;;;11.23;10.32;;;;;;;5.89;77.63;94852.94;5121702;27;20231;-71
2023/03/03 10:12:11;;;;;;;11.20;10.30;;;;;;;5.84;76.42;94851.16;5121313;27;20190;-71
2023/03/03 10:15:00;;;;;;;11.48;10.48;;;;;;;5.87;76.82;94857.94;5139431;27;20180;-71
2023/03/03 10:17:39;;;;;;;12.73;11.73;;;;;;;5.88;76.93;94857.63;5104390;27;20214;-71
2023/03/03 10:20:26;;;;;;;13.52;12.43;;;;;;;5.92;77.53;94852.25;5121468;27;20190;-69
2023/03/03 10:22:55;;;;;;;12.93;11.93;;;;;;;5.94;77.03;94845.34;5139208;27;20225;-71
2023/03/03 10:25:28;;;;;;;13.57;12.57;;;;;;;5.91;77.25;94836.97;5139599;27;20236;-70
2023/03/03 10:28:14;;;;;;;14.10;13.00;;;;;;;5.90;77.38;94838.13;5121405;27;20199;-71
2023/03/03 10:30:48;;;;;;;15.27;14.07;;;;;;;5.91;77.53;94837.78;5121547;27;20211;-70
2023/03/03 10:33:22;;;;;;;19.42;17.83;;;;;;;5.93;77.89;94835.56;5139092;27;20225;-69
2023/03/03 10:36:17;;;;;;;19.08;17.38;;;;;;;6.00;77.62;94841.31;5120850;27;20203;-70
2023/03/03 10:39:07;;;;;;;18.70;17.10;;;;;;;5.97;77.06;94838.44;5120697;27;20191;-70
2023/03/03 10:42:04;;;;;;;19.20;17.60;;;;;;;5.95;76.79;94835.22;5121005;27;20230;-70
2023/03/03 10:44:42;;;;;;;19.73;17.92;;;;;;;5.98;77.17;94835.34;5117814;27;20207;-69
2023/03/03 10:47:29;;;;;;;17.73;16.15;;;;;;;6.03;77.39;94839.88;5120668;27;20195;-72
2023/03/03 10:50:04;;;;;;;15.23;14.02;;;;;;;6.05;77.21;94837.59;5120779;27;20214;-73
2023/03/03 10:52:36;;;;;;;15.32;14.02;;;;;;;6.09;77.56;94824.03;5138577;27;20186;-72
2023/03/03 10:55:16;;;;;;;14.00;12.90;;;;;;;6.12;76.73;94829.66;5120902;27;20198;-72
2023/03/03 10:57:52;;;;;;;13.32;12.23;;;;;;;6.12;76.33;94831.59;5120514;27;20206;-73
2023/03/03 11:00:23;;;;;;;12.88;11.80;;;;;;;6.13;76.00;94819.50;5138604;27;20255;-72
2023/03/03 11:03:08;;;;;;;13.15;12.05;;;;;;;6.16;76.46;94819.63;5120757;27;20206;-73
2023/03/03 11:05:41;;;;;;;13.18;12.18;;;;;;;6.18;75.93;94820.13;5120828;27;20198;-73
2023/03/03 11:08:11;;;;;;;14.07;12.80;;;;;;;6.15;75.70;94814.50;5120384;27;20416;-73
2023/03/03 11:10:54;;;;;;;15.05;13.85;;;;;;;6.16;76.08;94819.63;5120439;27;20218;-73
2023/03/03 11:13:28;;;;;;;16.27;14.77;;;;;;;6.19;77.35;94813.50;5120131;27;20198;-73
2023/03/03 11:16:14;;;;;;;14.70;13.40;;;;;;;6.19;77.00;94812.72;5120160;27;20248;-72
2023/03/03 11:19:06;;;;;;;13.65;12.55;;;;;;;6.21;76.81;94797.56;5118042;27;20614;-73
2023/03/03 11:21:39;;;;;;;14.30;13.10;;;;;;;6.26;77.30;94796.56;5120051;27;20651;-72
2023/03/03 11:24:16;;;;;;;13.82;12.63;;;;;;;6.29;77.08;94797.84;5120233;27;20191;-72
2023/03/03 11:26:53;;;;;;;14.27;13.07;;;;;;;6.30;77.11;94802.19;5120444;27;20614;-72
2023/03/03 11:29:30;;;;;;;15.27;13.98;;;;;;;6.32;77.28;94797.16;5120515;27;20197;-72
2023/03/03 11:32:00;;;;;;;16.65;15.25;;;;;;;6.34;78.13;94797.63;5120410;27;20190;-72
2023/03/03 11:34:40;;;;;;;16.50;15.00;;;;;;;6.37;78.31;94807.94;5120086;27;20191;-72
2023/03/03 11:37:10;;;;;;;15.00;13.77;;;;;;;6.38;78.29;94793.88;5120474;27;20255;-72
2023/03/03 11:39:38;;;;;;;14.60;13.43;;;;;;;6.37;77.38;94791.50;5138221;27;20194;-72
2023/03/03 11:42:15;;;;;;;13.13;12.05;;;;;;;6.36;77.78;94787.97;5119633;27;20230;-73
2023/03/03 11:44:46;;;;;;;12.85;11.75;;;;;;;6.36;77.74;94792.63;5120134;27;20201;-72
2023/03/03 11:47:19;;;;;;;13.27;12.20;;;;;;;6.37;77.90;94788.75;5119843;27;20198;-72
2023/03/03 11:49:50;;;;;;;14.10;12.93;;;;;;;6.38;77.69;94788.41;5119793;27;20229;-72
2023/03/03 11:52:31;;;;;;;13.23;12.23;;;;;;;6.41;77.65;94789.69;5119678;27;20188;-73
2023/03/03 11:55:02;;;;;;;14.60;13.40;;;;;;;6.42;78.12;94786.59;5119949;27;20199;-72
2023/03/03 11:57:33;;;;;;;13.50;12.40;;;;;;;6.38;77.78;94779.41;5119392;27;20194;-73
2023/03/03 12:00:08;;;;;;;11.77;10.80;;;;;;;6.36;77.31;94782.47;5119883;27;20195;-73
2023/03/03 12:03:09;;;;;;;11.65;10.68;;;;;;;6.36;78.23;94779.75;5119945;27;20206;-73
2023/03/03 12:05:46;;;;;;;12.85;11.80;;;;;;;6.32;78.35;94778.81;5110289;27;20263;-72
2023/03/03 12:08:32;;;;;;;11.98;10.98;;;;;;;6.38;79.86;94782.94;5119572;27;20201;-72
2023/03/03 12:11:03;;;;;;;9.85;9.05;;;;;;;6.42;79.78;94781.13;5119389;27;20203;-73
2023/03/03 12:13:39;;;;;;;9.30;8.60;;;;;;;6.47;79.77;94775.47;5137572;27;20186;-72
2023/03/03 12:16:11;;;;;;;8.90;8.30;;;;;;;6.51;79.32;94781.88;5119342;27;20190;-72
2023/03/03 12:19:04;;;;;;;9.07;8.38;;;;;;;6.47;78.90;94783.69;5137273;27;20614;-72
2023/03/03 12:21:44;;;;;;;10.40;9.50;;;;;;;6.44;79.46;94778.06;5119507;27;20191;-73
2023/03/03 12:24:27;;;;;;;9.35;8.55;;;;;;;6.45;79.76;94782.41;5118378;28;20199;-73
2023/03/03 12:27:02;;;;;;;8.82;8.13;;;;;;;6.42;79.64;94777.59;5119125;27;20191;-72
2023/03/03 12:29:34;;;;;;;8.40;7.78;;;;;;;6.31;78.72;94785.41;5118888;27;20191;-72
2023/03/03 12:32:07;;;;;;;8.15;7.55;;;;;;;6.27;78.71;94778.97;5118820;27;20211;-72
2023/03/03 12:34:40;;;;;;;8.40;7.80;;;;;;;6.20;79.23;94776.75;5119241;27;20210;-72
2023/03/03 12:37:18;;;;;;;7.78;7.18;;;;;;;6.17;79.28;94777.44;5137035;27;20187;-72
2023/03/03 12:39:52;;;;;;;6.85;6.25;;;;;;;6.19;79.80;94785.31;5136952;27;20184;-72
2023/03/03 12:42:25;;;;;;;5.35;4.95;;;;;;;6.15;79.81;94790.66;5115494;28;20262;-72
2023/03/03 12:44:58;;;;;;;4.25;3.92;;;;;;;6.14;79.26;94791.00;5115244;28;20626;-72
2023/03/03 12:47:28;;;;;;;3.10;2.90;;;;;;;6.18;79.47;94790.00;5115458;28;20196;-71
2023/03/03 12:50:03;;;;;;;2.88;2.67;;;;;;;6.19;78.83;94790.81;5115433;28;20662;-72
2023/03/03 12:52:38;;;;;;;2.83;2.63;;;;;;;6.16;78.79;94785.97;5115053;28;20199;-72
2023/03/03 12:55:11;;;;;;;2.63;2.53;;;;;;;6.17;78.61;94788.41;5115537;28;20207;-72
2023/03/03 12:57:43;;;;;;;3.20;3.00;;;;;;;6.15;79.27;94785.19;5116113;28;20223;-73
2023/03/03 13:00:26;;;;;;;4.30;3.92;;;;;;;6.15;79.68;94784.38;5115254;28;20203;-72
2023/03/03 13:03:06;;;;;;;3.35;3.15;;;;;;;6.13;79.52;94784.69;5115662;28;20202;-72
2023/03/03 13:05:45;;;;;;;2.70;2.50;;;;;;;6.15;79.65;94776.97;5116418;28;20179;-73
2023/03/03 13:08:30;;;;;;;2.83;2.65;;;;;;;6.13;79.69;94779.22;5115522;28;20608;-72
2023/03/03 13:11:06;;;;;;;4.05;3.75;;;;;;;6.22;80.07;94773.72;5115117;28;20279;-72
2023/03/03 13:13:37;;;;;;;3.95;3.55;;;;;;;6.29;80.61;94776.72;5114849;28;20225;-74
2023/03/03 13:16:06;;;;;;;4.10;3.80;;;;;;;6.39;80.42;94776.34;5115708;28;20172;-73
2023/03/03 13:18:48;;;;;;;4.10;3.80;;;;;;;6.48;80.34;94773.53;5114817;28;20192;-73
2023/03/03 13:21:20;;;;;;;4.00;3.70;;;;;;;6.54;80.54;94774.13;5114712;28;20668;-72
2023/03/03 13:23:51;;;;;;;4.40;4.10;;;;;;;6.57;80.36;94767.97;5115734;28;20192;-72
2023/03/03 13:26:23;;;;;;;4.03;3.72;;;;;;;6.61;79.82;94763.41;5115016;28;20226;-72
2023/03/03 13:28:59;;;;;;;4.63;4.25;;;;;;;6.63;80.00;94767.44;5114528;28;20188;-72
2023/03/03 13:31:30;;;;;;;4.22;3.92;;;;;;;6.65;80.07;94767.91;5114929;28;20215;-72